createdAt,value
2022-08-07T00:02:36.093Z,99892.97
2022-08-07T00:04:15.722Z,99892.97
2022-08-07T00:06:51.322Z,99908.19
2022-08-07T00:09:22.236Z,99903.03
2022-08-07T00:11:56.083Z,99895.16
2022-08-07T00:14:30.978Z,99884.41
2022-08-07T00:17:02.984Z,99892.38
2022-08-07T00:19:56.048Z,99889.78
2022-08-07T00:22:24.481Z,99908.53
2022-08-07T00:25:15.667Z,99912.13
2022-08-07T00:27:52.532Z,99920.16
2022-08-07T00:30:27.745Z,99927.34
2022-08-07T00:33:02.266Z,99922.88
2022-08-07T00:35:30.632Z,99925.53
2022-08-07T00:37:59.608Z,99916.69
2022-08-07T00:40:39.320Z,99915.78
2022-08-07T00:44:01.748Z,99915.78
2022-08-07T00:46:00.584Z,99920.22
2022-08-07T00:48:32.400Z,99928.22
2022-08-07T00:51:02.620Z,99935.34
2022-08-07T00:53:39.239Z,99941.53
2022-08-07T00:56:18.595Z,99948.69
2022-08-07T00:58:46.792Z,99957.53
2022-08-07T01:01:16.674Z,99957.53
2022-08-07T01:03:57.127Z,99953.09
2022-08-07T01:06:29.582Z,99946.88
2022-08-07T01:09:01.154Z,99946.88
2022-08-07T01:12:24.069Z,99950.44
2022-08-07T01:14:28.288Z,99956.69
2022-08-07T01:16:58.110Z,99954.00
2022-08-07T01:19:32.272Z,99961.09
2022-08-07T01:22:01.196Z,99961.09
2022-08-07T01:24:37.120Z,99968.22
2022-08-07T01:27:05.584Z,99965.53
2022-08-07T01:29:47.322Z,99971.78
2022-08-07T01:32:15.284Z,99961.09
2022-08-07T01:34:47.290Z,99963.78
2022-08-07T01:37:18.966Z,99964.66
2022-08-07T01:39:49.199Z,99971.75
2022-08-07T01:42:37.550Z,99970.84
2022-08-07T01:45:18.266Z,99969.13
2022-08-07T01:48:18.623Z,99970.03
2022-08-07T01:50:43.196Z,99955.75
2022-08-07T01:53:20.883Z,99952.22
2022-08-07T01:56:01.625Z,99954.00
2022-08-07T01:58:45.484Z,99968.22
2022-08-07T02:01:59.843Z,99967.34
2022-08-07T02:04:52.376Z,99973.53
2022-08-07T02:07:36.207Z,99969.97
2022-08-07T02:10:25.697Z,99981.53
2022-08-07T02:12:59.637Z,99986.00
2022-08-07T02:15:34.562Z,99986.00
2022-08-07T02:18:04.509Z,99989.53
2022-08-07T02:20:34.269Z,99986.00
2022-08-07T02:23:06.438Z,99990.44
2022-08-07T02:26:31.025Z,99989.53
2022-08-07T02:28:29.972Z,99992.19
2022-08-07T02:31:10.199Z,99991.34
2022-08-07T02:34:04.103Z,99996.66
2022-08-07T02:36:45.156Z,100000.19
2022-08-07T02:39:43.802Z,100002.00
2022-08-07T02:42:10.131Z,99993.09
2022-08-07T02:44:49.812Z,99988.66
2022-08-07T02:47:23.468Z,99976.19
2022-08-07T02:49:55.908Z,99970.00
2022-08-07T02:52:38.589Z,99977.09
2022-08-07T02:55:27.690Z,99979.75
2022-08-07T02:58:04.845Z,99983.34
2022-08-07T03:00:35.249Z,99980.66
2022-08-07T03:03:13.611Z,99979.75
2022-08-07T03:05:53.552Z,99994.88
2022-08-07T03:08:26.855Z,99991.34
2022-08-07T03:10:59.687Z,99997.53
2022-08-07T03:13:39.074Z,99999.34
2022-08-07T03:16:17.783Z,99996.66
2022-08-07T03:18:51.772Z,100002.88
2022-08-07T03:21:20.575Z,100007.34
2022-08-07T03:24:19.661Z,100012.66
2022-08-07T03:26:51.374Z,100014.44
2022-08-07T03:29:37.384Z,100015.34
2022-08-07T03:32:13.172Z,100013.53
2022-08-07T03:34:47.535Z,100007.34
2022-08-07T03:37:37.405Z,100007.34
2022-08-07T03:40:24.153Z,100017.09
2022-08-07T03:43:00.661Z,100012.66
2022-08-07T03:45:31.489Z,100012.66
2022-08-07T03:48:10.108Z,100017.09
2022-08-07T03:50:40.174Z,100022.44
2022-08-07T03:53:19.984Z,100024.22
2022-08-07T03:56:13.667Z,100026.00
2022-08-07T03:59:09.151Z,100019.78
2022-08-07T04:01:30.358Z,100027.78
2022-08-07T04:04:00.132Z,100030.44
2022-08-07T04:06:38.450Z,100034.00
2022-08-07T04:09:16.069Z,100038.44
2022-08-07T04:12:25.181Z,100032.19
2022-08-07T04:14:45.975Z,100035.75
2022-08-07T04:17:20.995Z,100043.75
2022-08-07T04:19:54.584Z,100043.78
2022-08-07T04:22:27.398Z,100042.88
2022-08-07T04:24:58.450Z,100041.09
2022-08-07T04:27:26.879Z,100041.09
2022-08-07T04:30:01.878Z,100047.31
2022-08-07T04:32:44.946Z,100047.31
2022-08-07T04:35:16.467Z,100046.41
2022-08-07T04:38:00.890Z,100055.31
2022-08-07T04:40:32.483Z,100057.09
2022-08-07T04:43:03.286Z,100041.09
2022-08-07T04:46:01.179Z,100042.84
2022-08-07T04:48:55.437Z,100043.72
2022-08-07T04:52:11.733Z,100057.03
2022-08-07T04:58:12.543Z,100055.25
2022-08-07T04:59:17.770Z,100058.78
2022-08-07T05:01:58.115Z,100056.16
2022-08-07T05:05:53.930Z,100059.72
2022-08-07T05:08:59.424Z,100056.13
2022-08-07T05:11:56.800Z,100062.34
2022-08-07T05:14:52.324Z,100061.47
2022-08-07T05:17:52.290Z,100061.44
2022-08-07T05:20:32.867Z,100065.94
2022-08-07T05:23:15.571Z,100064.16
2022-08-07T05:26:13.679Z,100060.63
2022-08-07T05:28:35.711Z,100065.97
2022-08-07T05:31:05.496Z,100068.63
2022-08-07T05:33:37.795Z,100068.66
2022-08-07T05:36:12.288Z,100071.31
2022-08-07T05:38:59.412Z,100074.00
2022-08-07T05:42:02.762Z,100067.75
2022-08-07T05:44:29.252Z,100070.44
2022-08-07T05:46:58.370Z,100068.72
2022-08-07T05:49:40.436Z,100068.72
2022-08-07T05:52:11.588Z,100073.16
2022-08-07T05:54:53.173Z,100077.59
2022-08-07T05:57:22.010Z,100081.16
2022-08-07T05:59:57.463Z,100077.59
2022-08-07T06:02:33.287Z,100068.72
2022-08-07T06:05:15.768Z,100070.47
2022-08-07T06:08:14.536Z,100074.03
2022-08-07T06:10:38.537Z,100065.13
2022-08-07T06:13:13.567Z,100058.91
2022-08-07T06:15:44.505Z,100063.34
2022-08-07T06:18:21.549Z,100066.88
2022-08-07T06:22:16.649Z,100057.09
2022-08-07T06:24:37.079Z,100066.00
2022-08-07T06:26:27.916Z,100065.13
2022-08-07T06:29:01.424Z,100067.75
2022-08-07T06:31:47.123Z,100065.09
2022-08-07T06:34:20.554Z,100062.44
2022-08-07T06:36:52.068Z,100062.44
2022-08-07T06:40:13.070Z,100063.31
2022-08-07T06:42:19.162Z,100069.50
2022-08-07T06:45:18.157Z,100048.16
2022-08-07T06:47:58.531Z,100061.50
2022-08-07T06:50:31.481Z,100058.00
2022-08-07T06:53:04.086Z,100050.84
2022-08-07T06:55:54.120Z,100047.28
2022-08-07T06:58:27.507Z,100052.59
2022-08-07T07:01:03.159Z,100045.47
2022-08-07T07:03:48.686Z,100050.78
2022-08-07T07:06:26.195Z,100046.38
2022-08-07T07:08:54.771Z,100048.13
2022-08-07T07:12:09.824Z,100045.44
2022-08-07T07:14:15.620Z,100043.63
2022-08-07T07:16:50.540Z,100041.84
2022-08-07T07:19:57.296Z,100039.13
2022-08-07T07:22:35.871Z,100035.56
2022-08-07T07:26:33.329Z,100042.75
2022-08-07T07:28:42.066Z,100034.75
2022-08-07T07:31:25.457Z,100032.94
2022-08-07T07:34:06.048Z,100032.03
2022-08-07T07:36:40.379Z,100038.22
2022-08-07T07:39:10.411Z,100032.00
2022-08-07T07:41:50.657Z,100036.50
2022-08-07T07:44:31.541Z,100035.63
2022-08-07T07:47:14.035Z,100042.72
2022-08-07T07:50:35.221Z,100039.16
2022-08-07T07:52:36.672Z,100045.25
2022-08-07T07:55:06.459Z,100048.69
2022-08-07T07:57:53.439Z,100053.06
2022-08-07T08:00:29.535Z,100046.78
2022-08-07T08:03:16.572Z,100052.09
2022-08-07T08:06:00.471Z,100047.56
2022-08-07T08:08:37.024Z,100052.84
2022-08-07T08:11:16.005Z,100052.69
2022-08-07T08:13:54.254Z,100056.97
2022-08-07T08:16:51.259Z,100055.00
2022-08-07T08:20:16.245Z,100053.84
2022-08-07T08:22:34.918Z,100054.84
2022-08-07T08:25:42.640Z,100054.50
2022-08-07T08:28:24.075Z,100041.72
2022-08-07T08:31:16.185Z,100053.19
2022-08-07T08:33:55.437Z,100050.19
2022-08-07T08:36:30.426Z,100050.69
2022-08-07T08:39:02.692Z,100052.25
2022-08-07T08:42:07.162Z,100044.66
2022-08-07T08:45:21.973Z,100050.00
2022-08-07T08:48:51.114Z,100053.25
2022-08-07T08:52:12.873Z,100048.78
2022-08-07T08:55:55.496Z,100045.66
2022-08-07T08:59:02.328Z,100047.44
2022-08-07T09:02:36.609Z,100043.84
2022-08-07T09:05:44.077Z,100054.91
2022-08-07T09:08:39.969Z,100045.63
2022-08-07T09:11:56.755Z,100038.44
2022-08-07T09:15:00.434Z,100043.41
2022-08-07T09:21:33.766Z,100031.31
2022-08-07T09:25:17.414Z,100035.72
2022-08-07T09:30:02.067Z,100036.25
2022-08-07T09:31:38.995Z,100035.78
2022-08-07T09:34:31.716Z,100037.31
2022-08-07T09:37:13.314Z,100034.72
2022-08-07T09:40:20.602Z,100037.44
2022-08-07T09:43:40.050Z,100029.81
2022-08-07T09:47:49.519Z,100028.56
2022-08-07T09:50:52.623Z,100037.69
2022-08-07T09:53:24.734Z,100032.47
2022-08-07T09:56:41.902Z,100035.59
2022-08-07T10:00:01.007Z,100028.50
2022-08-07T10:04:05.849Z,100026.78
2022-08-07T10:06:55.667Z,100029.03
2022-08-07T10:10:12.106Z,100020.88
2022-08-07T10:14:00.074Z,100022.28
2022-08-07T10:16:48.201Z,100013.94
2022-08-07T10:19:47.755Z,100016.88
2022-08-07T10:23:12.462Z,100009.56
2022-08-07T10:26:31.706Z,100009.03
2022-08-07T10:30:12.194Z,100007.13
2022-08-07T10:34:05.785Z,99996.13
2022-08-07T10:37:16.354Z,99994.81
2022-08-07T10:40:21.806Z,99986.00
2022-08-07T10:43:29.808Z,99989.81
2022-08-07T10:46:15.877Z,99984.06
2022-08-07T10:49:24.508Z,99982.59
2022-08-07T10:52:40.101Z,99978.66
2022-08-07T10:55:37.277Z,99972.78
2022-08-07T10:58:59.437Z,99982.41
2022-08-07T11:02:33.513Z,99972.13
2022-08-07T11:05:58.771Z,99972.72
2022-08-07T11:09:00.442Z,99964.72
2022-08-07T11:12:02.092Z,99965.66
2022-08-07T11:14:59.949Z,99967.66
2022-08-07T11:18:06.352Z,99967.03
2022-08-07T11:21:06.499Z,99959.44
2022-08-07T11:23:58.288Z,99952.88
2022-08-07T11:26:53.697Z,99953.81
2022-08-07T11:29:40.780Z,99957.44
2022-08-07T11:32:48.514Z,99962.03
2022-08-07T11:36:15.926Z,99950.47
2022-08-07T11:39:25.970Z,99951.53
2022-08-07T11:42:41.382Z,99944.47
2022-08-07T11:45:50.161Z,99941.59
2022-08-07T11:49:51.444Z,99942.94
2022-08-07T11:53:00.880Z,99935.91
2022-08-07T11:56:08.977Z,99941.09
2022-08-07T12:00:11.709Z,99941.19
2022-08-07T12:03:45.023Z,99929.75
2022-08-07T12:06:38.955Z,99920.06
2022-08-07T12:09:27.224Z,99920.09
2022-08-07T12:12:12.117Z,99925.31
2022-08-07T12:15:16.974Z,99921.16
2022-08-07T12:17:58.962Z,99915.75
2022-08-07T12:21:04.252Z,99907.50
2022-08-07T12:24:07.031Z,99908.03
2022-08-07T12:26:49.579Z,99918.53
2022-08-07T12:29:37.707Z,99915.28
2022-08-07T12:32:34.145Z,99906.16
2022-08-07T12:35:11.965Z,99896.88
2022-08-07T12:38:09.117Z,99899.78
2022-08-07T12:40:47.645Z,99897.56
2022-08-07T12:44:04.500Z,99893.56
2022-08-07T12:46:26.482Z,99892.66
2022-08-07T12:49:56.697Z,99881.53
2022-08-07T12:52:34.817Z,99887.53
2022-08-07T12:55:41.009Z,99879.53
2022-08-07T12:58:28.106Z,99876.94
2022-08-07T13:01:49.417Z,99868.59
2022-08-07T13:05:15.159Z,99856.28
2022-08-07T13:08:38.702Z,99854.31
2022-08-07T13:11:24.988Z,99851.97
2022-08-07T13:14:50.829Z,99844.31
2022-08-07T13:17:42.394Z,99840.00
2022-08-07T13:20:27.711Z,99839.91
2022-08-07T13:24:01.679Z,99825.38
2022-08-07T13:26:49.368Z,99821.13
2022-08-07T13:29:47.715Z,99815.69
2022-08-07T13:32:43.263Z,99809.94
2022-08-07T13:36:00.765Z,99806.06
2022-08-07T13:38:59.708Z,99801.00
2022-08-07T13:41:54.654Z,99800.78
2022-08-07T13:44:27.571Z,99790.84
2022-08-07T13:47:04.752Z,99795.28
2022-08-07T13:50:34.722Z,99777.69
2022-08-07T13:52:39.584Z,99776.81
2022-08-07T13:55:26.640Z,99768.06
2022-08-07T13:58:27.690Z,99762.50
2022-08-07T14:01:09.963Z,99756.56
2022-08-07T14:04:06.848Z,99743.75
2022-08-07T14:06:50.210Z,99743.34
2022-08-07T14:10:02.065Z,99742.91
2022-08-07T14:12:49.493Z,99735.72
2022-08-07T14:15:44.267Z,99731.31
2022-08-07T14:18:29.927Z,99736.94
2022-08-07T14:21:12.017Z,99729.94
2022-08-07T14:24:06.597Z,99739.50
2022-08-07T14:26:50.598Z,99736.19
2022-08-07T14:30:07.112Z,99741.03
2022-08-07T14:32:19.199Z,99745.75
2022-08-07T14:34:48.884Z,99746.97
2022-08-07T14:37:39.054Z,99744.94
2022-08-07T14:40:27.144Z,99747.94
2022-08-07T14:43:57.573Z,99758.44
2022-08-07T14:46:11.947Z,99759.84
2022-08-07T14:48:48.824Z,99766.84
2022-08-07T14:57:11.556Z,99787.75
2022-08-07T15:00:04.166Z,99790.38
2022-08-07T15:02:35.121Z,99788.16
2022-08-07T15:05:20.059Z,99784.00
2022-08-07T15:07:54.234Z,99791.72
2022-08-07T15:10:27.201Z,99789.97
2022-08-07T15:13:11.622Z,99785.16
2022-08-07T15:15:52.205Z,99788.59
2022-08-07T15:25:14.181Z,99778.28
2022-08-07T15:27:29.017Z,99777.03
2022-08-07T15:33:04.134Z,99776.78
2022-08-07T15:36:04.890Z,99765.47
2022-08-07T15:41:23.954Z,99753.19
2022-08-07T15:44:07.564Z,99762.31
2022-08-07T15:50:04.378Z,99748.50
2022-08-07T15:52:30.342Z,99739.94
2022-08-07T15:55:04.329Z,99736.19
2022-08-07T15:57:48.227Z,99735.34
2022-08-07T16:00:31.713Z,99729.84
2022-08-07T16:03:21.422Z,99734.97
2022-08-07T16:05:52.700Z,99740.34
2022-08-07T16:08:31.977Z,99730.69
2022-08-07T16:11:28.773Z,99741.59
2022-08-07T16:14:19.269Z,99730.56
2022-08-07T16:17:03.583Z,99737.34
2022-08-07T16:20:34.070Z,99744.16
2022-08-07T16:24:34.733Z,99761.13
2022-08-07T16:27:40.539Z,99755.56
2022-08-07T16:30:31.936Z,99750.34
2022-08-07T16:34:02.031Z,99754.63
2022-08-07T16:36:32.259Z,99755.13
2022-08-07T16:39:56.036Z,99758.16
2022-08-07T16:42:41.592Z,99773.06
2022-08-07T16:46:40.936Z,99774.91
2022-08-07T16:50:27.053Z,99777.31
2022-08-07T16:52:57.567Z,99787.66
2022-08-07T16:55:51.620Z,99796.47
2022-08-07T16:59:02.189Z,99792.72
2022-08-07T17:01:48.045Z,99794.72
2022-08-07T17:05:15.188Z,99800.22
2022-08-07T17:08:00.182Z,99796.75
2022-08-07T17:10:54.596Z,99794.22
2022-08-07T17:14:19.721Z,99792.63
2022-08-07T17:17:05.182Z,99788.91
2022-08-07T17:20:00.816Z,99792.72
2022-08-07T17:22:48.640Z,99795.69
2022-08-07T17:25:47.397Z,99797.28
2022-08-07T17:28:19.849Z,99795.28
2022-08-07T17:31:35.933Z,99795.38
2022-08-07T17:34:34.741Z,99797.78
2022-08-07T17:38:11.529Z,99782.31
2022-08-07T17:40:30.530Z,99800.22
2022-08-07T17:43:18.358Z,99800.78
2022-08-07T17:46:20.962Z,99807.50
2022-08-07T17:49:45.403Z,99807.84
2022-08-07T17:52:39.598Z,99804.38
2022-08-07T17:55:54.765Z,99797.75
2022-08-07T17:58:30.813Z,99803.50
2022-08-07T18:01:21.070Z,99801.00
2022-08-07T18:04:34.756Z,99799.00
2022-08-07T18:07:20.899Z,99804.25
2022-08-07T18:10:06.863Z,99813.59
2022-08-07T18:13:01.322Z,99811.13
2022-08-07T18:15:53.369Z,99822.09
2022-08-07T18:18:47.072Z,99822.75
2022-08-07T18:21:51.584Z,99831.88
2022-08-07T18:25:01.469Z,99846.59
2022-08-07T18:28:00.137Z,99853.09
2022-08-07T18:31:00.395Z,99848.81
2022-08-07T18:34:37.498Z,99859.22
2022-08-07T18:38:55.036Z,99848.31
2022-08-07T18:41:07.944Z,99852.22
2022-08-07T18:44:11.875Z,99849.78
2022-08-07T18:47:20.976Z,99858.06
2022-08-07T18:50:38.031Z,99878.06
2022-08-07T18:54:00.484Z,99880.78
2022-08-07T18:57:30.184Z,99885.44
2022-08-07T19:00:33.178Z,99892.75
2022-08-07T19:03:37.916Z,99888.28
2022-08-07T19:06:16.816Z,99891.13
2022-08-07T19:08:56.057Z,99895.66
2022-08-07T19:12:17.943Z,99902.22
2022-08-07T19:15:22.864Z,99902.56
2022-08-07T19:18:57.110Z,99917.31
2022-08-07T19:21:58.315Z,99913.91
2022-08-07T19:24:50.953Z,99917.69
2022-08-07T19:28:56.736Z,99918.19
2022-08-07T19:31:04.383Z,99913.03
2022-08-07T19:33:13.393Z,99924.81
2022-08-07T19:35:56.655Z,99915.22
2022-08-07T19:38:30.593Z,99913.38
2022-08-07T19:41:02.781Z,99914.41
2022-08-07T19:43:48.574Z,99913.69
2022-08-07T19:46:35.656Z,99910.34
2022-08-07T19:49:17.493Z,99899.00
2022-08-07T19:52:05.853Z,99894.56
2022-08-07T19:54:56.401Z,99887.53
2022-08-07T19:58:03.121Z,99885.88
2022-08-07T20:00:31.137Z,99873.53
2022-08-07T20:03:33.466Z,99878.78
2022-08-07T20:06:04.831Z,99882.16
2022-08-07T20:08:38.232Z,99876.75
2022-08-07T20:11:15.271Z,99874.34
2022-08-07T20:13:54.043Z,99870.94
2022-08-07T20:16:35.231Z,99861.25
2022-08-07T20:19:10.210Z,99866.72
2022-08-07T20:21:47.755Z,99868.72
2022-08-07T20:24:32.344Z,99871.44
2022-08-07T20:27:04.085Z,99868.94
2022-08-07T20:29:48.997Z,99874.25
2022-08-07T20:32:38.948Z,99875.16
2022-08-07T20:35:26.539Z,99871.53
2022-08-07T20:37:58.620Z,99875.94
2022-08-07T20:40:34.615Z,99880.38
2022-08-07T20:43:09.499Z,99892.81
2022-08-07T20:46:26.657Z,99887.47
2022-08-07T20:48:36.153Z,99894.69
2022-08-07T20:51:09.748Z,99890.31
2022-08-07T20:54:02.333Z,99886.75
2022-08-07T20:56:34.706Z,99890.31
2022-08-07T20:59:05.898Z,99888.63
2022-08-07T21:01:45.959Z,99894.94
2022-08-07T21:04:28.909Z,99904.66
2022-08-07T21:07:03.965Z,99908.16
2022-08-07T21:09:52.799Z,99915.22
2022-08-07T21:12:31.066Z,99924.19
2022-08-07T21:15:05.464Z,99942.38
2022-08-07T21:18:02.347Z,99971.81
2022-08-07T21:20:30.482Z,99965.66
2022-08-07T21:23:28.113Z,99975.59
2022-08-07T21:26:26.236Z,99967.53
2022-08-07T21:29:07.398Z,99985.34
2022-08-07T21:32:43.096Z,99980.28
2022-08-07T21:36:05.493Z,99988.41
2022-08-07T21:38:44.347Z,99986.75
2022-08-07T21:41:37.774Z,99994.84
2022-08-07T21:44:51.334Z,99995.75
2022-08-07T21:47:50.252Z,99993.06
2022-08-07T21:51:19.550Z,99988.66
2022-08-07T21:54:20.044Z,99984.22
2022-08-07T21:57:30.973Z,99976.19
2022-08-07T22:00:23.050Z,99993.09
2022-08-07T22:03:17.406Z,99988.66
2022-08-07T22:05:58.327Z,99985.09
2022-08-07T22:08:47.932Z,99993.09
2022-08-07T22:11:21.476Z,99998.44
2022-08-07T22:13:57.396Z,99999.38
2022-08-07T22:16:57.057Z,100003.78
2022-08-07T22:19:38.846Z,100002.88
2022-08-07T22:22:27.830Z,100010.00
2022-08-07T22:25:03.285Z,100010.88
2022-08-07T22:28:20.129Z,100010.00
2022-08-07T22:30:53.033Z,100017.13
2022-08-07T22:33:53.053Z,100024.22
2022-08-07T22:37:02.386Z,100021.56
2022-08-07T22:40:05.076Z,100012.69
2022-08-07T22:42:35.142Z,100013.56
2022-08-07T22:45:21.781Z,100000.19
2022-08-07T22:48:55.345Z,99998.44
2022-08-07T22:51:49.396Z,99992.19
2022-08-07T22:55:17.674Z,99989.53
2022-08-07T22:58:33.152Z,99987.78
2022-08-07T23:01:42.132Z,99991.34
2022-08-07T23:04:57.083Z,99991.34
2022-08-07T23:08:33.100Z,99992.19
2022-08-07T23:11:59.447Z,99982.44
2022-08-07T23:15:08.003Z,99979.78
2022-08-07T23:18:02.391Z,99978.88
2022-08-07T23:21:00.494Z,99977.09
2022-08-07T23:24:23.641Z,99978.00
2022-08-07T23:27:34.026Z,99974.44
2022-08-07T23:30:38.324Z,99974.44
2022-08-07T23:34:21.983Z,99981.53
2022-08-07T23:37:19.127Z,99974.44
2022-08-07T23:39:56.562Z,99964.66
2022-08-07T23:43:01.166Z,99966.44
2022-08-07T23:46:02.805Z,99956.66
2022-08-07T23:49:15.823Z,99963.78
2022-08-07T23:52:58.742Z,99954.00
2022-08-07T23:55:47.144Z,99954.88
2022-08-07T23:58:21.613Z,99946.88
